Time;durP1;ratioP1;P1;durP2;ratioP2;P2;SDS_P1;SDS_P2;PMS_P1;PMS_P2;Temp;Humidity;BMP_temperature;BMP_pressure;BME280_temperature;BME280_humidity;BME280_pressure;Samples;Min_cycle;Max_cycle;Signal;HPM_P1;HPM_P2
2022/01/15 00:02:19;;;;;;;37.63;21.87;;;;;;;;;;5006725;28;20467;-63
2022/01/15 00:04:45;;;;;;;35.63;22.00;;;;;;;;;;5004251;28;20103;-63
2022/01/15 00:07:11;;;;;;;34.70;21.83;;;;;;;;;;5005566;28;20472;-63
2022/01/15 00:09:38;;;;;;;33.60;21.53;;;;;;;;;;5008954;28;20129;-63
2022/01/15 00:12:05;;;;;;;33.77;21.63;;;;;;;;;;5012494;28;20057;-63
2022/01/15 00:14:37;;;;;;;33.23;22.60;;;;;;;;;;4989048;28;20407;-63
2022/01/15 00:17:06;;;;;;;33.00;21.07;;;;;;;;;;5008697;28;20045;-63
2022/01/15 00:19:43;;;;;;;36.33;23.97;;;;;;;;;;5005960;28;20057;-63
2022/01/15 00:22:09;;;;;;;39.47;23.53;;;;;;;;;;5009830;28;20042;-63
2022/01/15 00:24:35;;;;;;;34.83;22.83;;;;;;;;;;5009234;28;20033;-63
2022/01/15 00:27:01;;;;;;;37.03;22.03;;;;;;;;;;5012615;28;20411;-63
2022/01/15 00:29:29;;;;;;;37.77;22.43;;;;;;;;;;5004463;28;20022;-63
2022/01/15 00:31:56;;;;;;;31.37;21.70;;;;;;;;;;5014562;28;20037;-63
2022/01/15 00:34:22;;;;;;;35.23;21.80;;;;;;;;;;5006966;28;20120;-63
2022/01/15 00:37:06;;;;;;;31.37;22.00;;;;;;;;;;5003726;28;20089;-63
2022/01/15 00:39:32;;;;;;;34.75;22.42;;;;;;;;;;5009001;28;20048;-63
2022/01/15 00:41:58;;;;;;;34.83;21.63;;;;;;;;;;5013738;28;20057;-63
2022/01/15 00:44:24;;;;;;;31.43;21.73;;;;;;;;;;5010855;28;20026;-63
2022/01/15 00:46:50;;;;;;;35.50;21.63;;;;;;;;;;5012626;28;20571;-63
2022/01/15 00:49:16;;;;;;;35.73;22.07;;;;;;;;;;5010535;28;20808;-63
2022/01/15 00:51:43;;;;;;;41.77;22.80;;;;;;;;;;5014005;28;20033;-63
2022/01/15 00:54:09;;;;;;;37.80;23.07;;;;;;;;;;5013744;28;20041;-63
2022/01/15 00:56:35;;;;;;;34.20;22.37;;;;;;;;;;5013747;28;20037;-63
2022/01/15 00:59:01;;;;;;;40.27;23.10;;;;;;;;;;5013115;28;20510;-63
2022/01/15 01:01:27;;;;;;;33.10;22.03;;;;;;;;;;5009169;28;20026;-63
2022/01/15 01:03:53;;;;;;;32.70;22.47;;;;;;;;;;5013508;28;20033;-63
2022/01/15 01:06:19;;;;;;;35.80;23.00;;;;;;;;;;4998169;28;20018;-63
2022/01/15 01:08:45;;;;;;;35.87;22.63;;;;;;;;;;5013580;28;20038;-63
2022/01/15 01:11:14;;;;;;;36.57;22.27;;;;;;;;;;4993563;28;20030;-63
2022/01/15 01:24:28;;;;;;;34.15;22.48;;;;;;;;;;5010076;28;20073;-63
2022/01/15 01:26:59;;;;;;;33.57;23.47;;;;;;;;;;5012347;28;20574;-63
2022/01/15 01:32:10;;;;;;;37.93;22.87;;;;;;;;;;5012471;28;20034;-63
2022/01/15 01:34:39;;;;;;;31.63;21.57;;;;;;;;;;4976149;28;20026;-63
2022/01/15 01:39:51;;;;;;;40.80;23.57;;;;;;;;;;5009973;28;20053;-63
2022/01/15 01:44:59;;;;;;;38.47;23.60;;;;;;;;;;5012538;28;20053;-63
2022/01/15 01:47:36;;;;;;;43.13;26.30;;;;;;;;;;5013160;28;20072;-63
2022/01/15 01:50:03;;;;;;;42.53;25.30;;;;;;;;;;5012102;28;20030;-63
2022/01/15 01:52:29;;;;;;;42.20;25.03;;;;;;;;;;5011048;28;20029;-62
2022/01/15 01:54:55;;;;;;;33.90;24.07;;;;;;;;;;5011064;28;20041;-63
2022/01/15 01:57:21;;;;;;;44.70;24.80;;;;;;;;;;4999177;28;20121;-63
2022/01/15 01:59:47;;;;;;;39.07;26.13;;;;;;;;;;5011480;28;20373;-63
2022/01/15 02:02:13;;;;;;;39.07;24.90;;;;;;;;;;5012717;28;20087;-63
2022/01/15 02:04:39;;;;;;;37.50;24.67;;;;;;;;;;5003702;28;20030;-63
2022/01/15 02:07:05;;;;;;;35.57;25.33;;;;;;;;;;5002849;28;20494;-63
2022/01/15 02:09:31;;;;;;;37.53;25.50;;;;;;;;;;5001610;28;20030;-63
2022/01/15 02:11:57;;;;;;;39.83;25.77;;;;;;;;;;5003383;28;20030;-63
2022/01/15 02:14:30;;;;;;;39.27;26.30;;;;;;;;;;5010753;28;20030;-63
2022/01/15 02:16:57;;;;;;;38.17;24.17;;;;;;;;;;5002046;28;20045;-63
2022/01/15 02:19:25;;;;;;;35.83;24.33;;;;;;;;;;5002067;28;20018;-63
2022/01/15 02:24:17;;;;;;;40.13;24.10;;;;;;;;;;4990698;28;20129;-63
2022/01/15 02:26:43;;;;;;;37.23;24.07;;;;;;;;;;5003946;28;20045;-63
2022/01/15 02:29:10;;;;;;;35.83;23.50;;;;;;;;;;5005618;28;20022;-63
2022/01/15 02:31:39;;;;;;;33.57;23.73;;;;;;;;;;5002940;28;20513;-63
2022/01/15 02:34:06;;;;;;;34.17;25.03;;;;;;;;;;4998571;28;20031;-63
2022/01/15 02:36:33;;;;;;;35.80;23.90;;;;;;;;;;4997270;28;20046;-63
2022/01/15 02:38:59;;;;;;;37.93;23.93;;;;;;;;;;5005127;28;20026;-63
2022/01/15 02:41:30;;;;;;;36.13;23.77;;;;;;;;;;5005248;28;20456;-63
2022/01/15 02:43:57;;;;;;;38.27;23.13;;;;;;;;;;5000499;28;20029;-63
2022/01/15 02:49:10;;;;;;;30.93;22.47;;;;;;;;;;4988569;28;20048;-63
2022/01/15 02:51:36;;;;;;;36.53;22.93;;;;;;;;;;5005384;28;20036;-63
2022/01/15 02:54:03;;;;;;;36.63;23.13;;;;;;;;;;5009274;28;20064;-63
2022/01/15 02:56:32;;;;;;;33.30;20.83;;;;;;;;;;5004559;28;20472;-63
2022/01/15 02:58:59;;;;;;;32.73;20.63;;;;;;;;;;5016832;28;20040;-63
2022/01/15 03:01:25;;;;;;;33.40;20.40;;;;;;;;;;5006242;28;20029;-63
2022/01/15 03:03:51;;;;;;;31.97;21.43;;;;;;;;;;5003162;28;20027;-63
2022/01/15 03:06:19;;;;;;;27.90;19.13;;;;;;;;;;4999034;28;20436;-63
2022/01/15 03:11:48;;;;;;;25.57;19.17;;;;;;;;;;5005675;28;20459;-63
2022/01/15 03:14:18;;;;;;;29.53;20.43;;;;;;;;;;5018206;28;20030;-63
2022/01/15 03:16:44;;;;;;;29.80;19.73;;;;;;;;;;4999630;28;20479;-63
2022/01/15 03:19:10;;;;;;;28.77;19.23;;;;;;;;;;5008762;28;20037;-63
2022/01/15 03:21:36;;;;;;;28.87;20.70;;;;;;;;;;4996485;28;20045;-63
2022/01/15 03:24:02;;;;;;;28.90;19.27;;;;;;;;;;5006468;28;20038;-63
2022/01/15 03:26:28;;;;;;;27.30;18.80;;;;;;;;;;5003021;28;20070;-63
2022/01/15 03:28:54;;;;;;;28.57;18.80;;;;;;;;;;5011960;28;20114;-63
2022/01/15 03:31:42;;;;;;;27.47;17.60;;;;;;;;;;5010420;28;20137;-63
2022/01/15 03:34:08;;;;;;;25.60;17.33;;;;;;;;;;4996458;28;20048;-63
2022/01/15 03:36:34;;;;;;;27.80;18.70;;;;;;;;;;5006011;28;20034;-63
2022/01/15 03:39:00;;;;;;;26.77;18.07;;;;;;;;;;4992013;28;20384;-63
2022/01/15 03:41:26;;;;;;;29.97;18.67;;;;;;;;;;5009706;28;20044;-63
2022/01/15 03:43:52;;;;;;;27.33;18.57;;;;;;;;;;5011495;28;20127;-63
2022/01/15 03:46:20;;;;;;;29.67;18.87;;;;;;;;;;5008024;28;20151;-63
2022/01/15 03:48:47;;;;;;;27.87;18.37;;;;;;;;;;5010607;28;20109;-63
2022/01/15 03:51:13;;;;;;;26.17;18.43;;;;;;;;;;5009252;28;20041;-63
2022/01/15 03:53:39;;;;;;;22.33;17.97;;;;;;;;;;5001740;28;20469;-63
2022/01/15 03:56:05;;;;;;;26.07;18.47;;;;;;;;;;5003679;28;20077;-63
2022/01/15 03:58:32;;;;;;;25.27;19.07;;;;;;;;;;5002178;28;20034;-63
2022/01/15 04:00:58;;;;;;;25.97;18.03;;;;;;;;;;5004953;28;20044;-63
2022/01/15 04:03:24;;;;;;;28.60;18.63;;;;;;;;;;5009547;28;20034;-63
2022/01/15 04:05:50;;;;;;;27.10;18.03;;;;;;;;;;5007487;28;20140;-63
2022/01/15 04:08:16;;;;;;;26.77;19.93;;;;;;;;;;5002385;28;20113;-63
2022/01/15 04:10:42;;;;;;;24.43;18.37;;;;;;;;;;4999428;28;20050;-64
2022/01/15 04:13:08;;;;;;;32.20;20.87;;;;;;;;;;4999485;28;20409;-63
2022/01/15 04:15:35;;;;;;;31.80;19.97;;;;;;;;;;4999292;28;20045;-63
2022/01/15 04:18:01;;;;;;;35.07;21.27;;;;;;;;;;5000967;28;20021;-63
2022/01/15 04:20:27;;;;;;;26.37;21.60;;;;;;;;;;5001282;28;20064;-63
2022/01/15 04:22:54;;;;;;;29.63;20.80;;;;;;;;;;5003379;28;20121;-63
2022/01/15 04:25:20;;;;;;;31.87;20.43;;;;;;;;;;5000295;28;20057;-64
2022/01/15 04:27:46;;;;;;;34.07;21.63;;;;;;;;;;5002640;28;20506;-63
2022/01/15 04:30:13;;;;;;;34.53;22.57;;;;;;;;;;5001813;28;20054;-64
2022/01/15 04:32:40;;;;;;;30.93;21.43;;;;;;;;;;5001889;28;20060;-63
2022/01/15 04:35:06;;;;;;;31.30;21.73;;;;;;;;;;5002986;28;20101;-63
2022/01/15 04:37:42;;;;;;;36.13;21.17;;;;;;;;;;5001474;28;20037;-63
2022/01/15 04:40:09;;;;;;;32.97;21.73;;;;;;;;;;4998547;28;20105;-63
2022/01/15 04:52:08;;;;;;;29.93;21.13;;;;;;;;;;5000382;28;20032;-63
2022/01/15 04:54:35;;;;;;;33.03;22.30;;;;;;;;;;5003536;28;20467;-63
2022/01/15 04:57:01;;;;;;;32.77;22.97;;;;;;;;;;5006005;28;20156;-63
2022/01/15 04:59:27;;;;;;;29.50;22.10;;;;;;;;;;5010527;28;20084;-63
2022/01/15 05:01:53;;;;;;;34.30;24.37;;;;;;;;;;5000404;28;20026;-63
2022/01/15 05:04:19;;;;;;;33.37;23.40;;;;;;;;;;5000473;28;20499;-63
2022/01/15 05:06:45;;;;;;;33.43;22.80;;;;;;;;;;4987805;28;20442;-63
2022/01/15 05:09:11;;;;;;;37.53;23.60;;;;;;;;;;5005982;28;20498;-63
2022/01/15 05:12:03;;;;;;;36.63;22.70;;;;;;;;;;5000008;28;20030;-63
2022/01/15 05:14:29;;;;;;;34.97;22.77;;;;;;;;;;5011785;28;20036;-63
2022/01/15 05:16:55;;;;;;;33.37;22.53;;;;;;;;;;5007082;28;20033;-63
2022/01/15 05:19:21;;;;;;;31.00;21.97;;;;;;;;;;5009276;28;20070;-63
2022/01/15 05:21:48;;;;;;;33.13;21.60;;;;;;;;;;4993168;28;20145;-63
2022/01/15 05:24:14;;;;;;;32.57;22.70;;;;;;;;;;5002520;28;20539;-63
2022/01/15 05:26:40;;;;;;;31.40;21.70;;;;;;;;;;5001202;28;20053;-63
2022/01/15 05:29:06;;;;;;;32.67;20.63;;;;;;;;;;5007415;28;20569;-63
2022/01/15 05:31:32;;;;;;;31.80;20.53;;;;;;;;;;5004850;28;20038;-63
2022/01/15 05:33:58;;;;;;;27.90;19.77;;;;;;;;;;4993823;28;20049;-63
2022/01/15 05:36:24;;;;;;;26.13;19.47;;;;;;;;;;5005690;28;20045;-63
2022/01/15 05:38:51;;;;;;;31.03;20.43;;;;;;;;;;5006332;28;20034;-62
2022/01/15 05:41:17;;;;;;;28.20;20.43;;;;;;;;;;5001757;28;20040;-62
2022/01/15 05:43:44;;;;;;;25.60;19.83;;;;;;;;;;5010834;28;20057;-62
2022/01/15 05:46:10;;;;;;;30.33;19.60;;;;;;;;;;5008376;28;20397;-62
2022/01/15 05:48:36;;;;;;;28.73;19.63;;;;;;;;;;5006097;28;20487;-62
2022/01/15 05:51:02;;;;;;;29.73;19.63;;;;;;;;;;5007319;28;20040;-62
2022/01/15 05:53:28;;;;;;;34.83;21.13;;;;;;;;;;5005978;28;20026;-62
2022/01/15 05:55:54;;;;;;;28.67;19.83;;;;;;;;;;5007290;28;20084;-62
2022/01/15 05:58:20;;;;;;;28.43;19.87;;;;;;;;;;4993422;28;20497;-62
2022/01/15 06:00:46;;;;;;;29.33;20.17;;;;;;;;;;5002963;28;20030;-61
2022/01/15 06:03:12;;;;;;;31.60;21.03;;;;;;;;;;4991320;28;20026;-62
2022/01/15 06:05:38;;;;;;;29.43;20.20;;;;;;;;;;5004809;28;20491;-62
2022/01/15 06:08:04;;;;;;;27.53;20.07;;;;;;;;;;5001302;28;20029;-62
2022/01/15 06:10:30;;;;;;;29.60;20.57;;;;;;;;;;5003706;28;20065;-61
2022/01/15 06:12:56;;;;;;;28.40;20.43;;;;;;;;;;4992905;28;20657;-62
2022/01/15 06:15:22;;;;;;;31.37;20.43;;;;;;;;;;5006552;28;20140;-62
2022/01/15 06:17:48;;;;;;;29.10;20.87;;;;;;;;;;5006820;28;20029;-62
2022/01/15 06:20:15;;;;;;;28.90;21.57;;;;;;;;;;5006125;28;20037;-62
2022/01/15 06:22:41;;;;;;;29.93;19.90;;;;;;;;;;4998263;28;20018;-62
2022/01/15 06:25:08;;;;;;;31.43;20.97;;;;;;;;;;5015488;28;20026;-62
2022/01/15 06:27:34;;;;;;;31.07;20.53;;;;;;;;;;5007778;28;20050;-62
2022/01/15 06:30:00;;;;;;;29.10;20.77;;;;;;;;;;5010835;28;20029;-62
2022/01/15 06:32:27;;;;;;;32.07;21.53;;;;;;;;;;5000444;28;20037;-62
2022/01/15 06:34:53;;;;;;;30.30;21.53;;;;;;;;;;5007327;28;20033;-61
2022/01/15 06:37:20;;;;;;;29.50;20.10;;;;;;;;;;5006502;28;20026;-63
2022/01/15 06:39:46;;;;;;;27.13;20.30;;;;;;;;;;4990687;28;20029;-62
2022/01/15 06:42:12;;;;;;;28.93;19.77;;;;;;;;;;4998583;28;20042;-63
2022/01/15 06:44:38;;;;;;;26.73;19.37;;;;;;;;;;5006185;28;20032;-62
2022/01/15 06:47:04;;;;;;;30.93;19.90;;;;;;;;;;5005191;28;20025;-62
2022/01/15 06:49:30;;;;;;;24.87;19.20;;;;;;;;;;5001304;28;20034;-62
2022/01/15 06:51:56;;;;;;;27.13;19.07;;;;;;;;;;5007664;28;20025;-63
2022/01/15 06:54:22;;;;;;;26.87;19.03;;;;;;;;;;5008140;28;20518;-63
2022/01/15 06:56:48;;;;;;;25.13;18.03;;;;;;;;;;5000551;28;20038;-63
2022/01/15 06:59:14;;;;;;;25.10;18.30;;;;;;;;;;5006408;28;20018;-63
2022/01/15 07:01:40;;;;;;;25.20;18.97;;;;;;;;;;5003277;28;20026;-62
2022/01/15 07:04:06;;;;;;;29.47;18.50;;;;;;;;;;4991153;28;20095;-63
2022/01/15 07:06:32;;;;;;;30.67;19.33;;;;;;;;;;5001556;28;20633;-62
2022/01/15 07:08:58;;;;;;;26.53;20.00;;;;;;;;;;5008285;28;20111;-63
2022/01/15 07:11:24;;;;;;;26.37;18.90;;;;;;;;;;4985472;28;20157;-62
2022/01/15 07:13:50;;;;;;;29.40;19.53;;;;;;;;;;5005506;28;20403;-62
2022/01/15 07:16:17;;;;;;;27.40;19.53;;;;;;;;;;5002314;28;20048;-62
2022/01/15 07:18:43;;;;;;;33.97;19.67;;;;;;;;;;4993185;28;20149;-62
2022/01/15 07:21:10;;;;;;;28.33;19.97;;;;;;;;;;5005988;28;20131;-64
2022/01/15 07:23:36;;;;;;;27.70;20.20;;;;;;;;;;5008177;28;20041;-63
2022/01/15 07:26:02;;;;;;;27.50;19.83;;;;;;;;;;5006768;28;20042;-62
2022/01/15 07:28:30;;;;;;;31.47;20.83;;;;;;;;;;4990118;28;20048;-62
2022/01/15 07:30:56;;;;;;;27.63;20.87;;;;;;;;;;5001609;28;20597;-62
2022/01/15 07:33:22;;;;;;;27.93;20.40;;;;;;;;;;5007135;28;20030;-62
2022/01/15 07:35:48;;;;;;;28.33;19.97;;;;;;;;;;5002459;28;20050;-62
2022/01/15 07:38:16;;;;;;;28.50;20.57;;;;;;;;;;4991870;28;20054;-62
2022/01/15 07:40:42;;;;;;;28.73;20.47;;;;;;;;;;4990691;28;20061;-62
2022/01/15 07:43:08;;;;;;;27.70;20.00;;;;;;;;;;4992565;28;20044;-62
2022/01/15 07:45:34;;;;;;;29.37;20.57;;;;;;;;;;5004488;28;20042;-62
2022/01/15 07:48:00;;;;;;;31.03;22.63;;;;;;;;;;5001388;28;20030;-62
2022/01/15 07:50:26;;;;;;;33.17;22.53;;;;;;;;;;5001531;28;20080;-62
2022/01/15 07:52:52;;;;;;;31.20;21.83;;;;;;;;;;5006533;28;20565;-62
2022/01/15 07:55:19;;;;;;;32.50;21.13;;;;;;;;;;5009272;28;20046;-62
2022/01/15 07:57:45;;;;;;;29.17;21.17;;;;;;;;;;5000425;28;20038;-62
2022/01/15 08:00:14;;;;;;;29.80;21.60;;;;;;;;;;5007537;28;20062;-62
2022/01/15 08:02:41;;;;;;;29.47;22.60;;;;;;;;;;4991665;28;20104;-62
2022/01/15 08:05:07;;;;;;;32.20;21.70;;;;;;;;;;5009223;28;20052;-62
2022/01/15 08:07:34;;;;;;;27.93;21.37;;;;;;;;;;5004296;28;20832;-63
2022/01/15 08:10:01;;;;;;;33.40;22.50;;;;;;;;;;4997608;28;20036;-63
2022/01/15 08:12:27;;;;;;;29.23;21.57;;;;;;;;;;5000397;28;20187;-63
2022/01/15 08:14:55;;;;;;;32.17;22.43;;;;;;;;;;5003930;28;20390;-63
2022/01/15 08:17:21;;;;;;;38.80;22.30;;;;;;;;;;5003781;28;20197;-62
2022/01/15 08:19:47;;;;;;;29.63;21.87;;;;;;;;;;5004534;28;20030;-62
2022/01/15 08:22:13;;;;;;;31.97;22.73;;;;;;;;;;5001418;28;20038;-62
2022/01/15 08:24:39;;;;;;;29.90;23.30;;;;;;;;;;5022927;28;20026;-62
2022/01/15 08:27:05;;;;;;;38.87;23.47;;;;;;;;;;5004051;28;20057;-62
2022/01/15 08:29:31;;;;;;;31.83;22.57;;;;;;;;;;5008989;28;20034;-62
2022/01/15 08:31:58;;;;;;;29.77;21.73;;;;;;;;;;4995501;28;20117;-62
2022/01/15 08:34:24;;;;;;;31.77;23.00;;;;;;;;;;5004830;28;20029;-62
2022/01/15 08:36:50;;;;;;;31.27;23.27;;;;;;;;;;5006003;28;20117;-63
2022/01/15 08:39:17;;;;;;;32.83;22.93;;;;;;;;;;5011186;28;20026;-62
2022/01/15 08:41:48;;;;;;;33.27;23.07;;;;;;;;;;4989880;28;20545;-62
2022/01/15 08:44:20;;;;;;;33.83;23.43;;;;;;;;;;5006873;28;20033;-63
2022/01/15 08:46:47;;;;;;;29.97;23.27;;;;;;;;;;5005654;28;20033;-63
2022/01/15 08:52:16;;;;;;;41.03;25.40;;;;;;;;;;5004375;28;20037;-63
2022/01/15 08:54:43;;;;;;;36.63;25.90;;;;;;;;;;5007620;28;20033;-63
2022/01/15 08:57:09;;;;;;;36.57;26.07;;;;;;;;;;5006093;28;20035;-63
2022/01/15 08:59:35;;;;;;;32.73;24.93;;;;;;;;;;5007887;28;20064;-63
2022/01/15 09:02:01;;;;;;;36.53;26.80;;;;;;;;;;5006238;28;20551;-63
2022/01/15 09:04:27;;;;;;;31.97;25.23;;;;;;;;;;5006668;28;20045;-62
2022/01/15 09:06:54;;;;;;;36.17;26.60;;;;;;;;;;4988153;28;20545;-63
2022/01/15 09:09:20;;;;;;;35.70;26.93;;;;;;;;;;5006717;28;20026;-64
2022/01/15 09:11:46;;;;;;;37.00;27.07;;;;;;;;;;5008982;28;20605;-63
2022/01/15 09:14:12;;;;;;;35.63;26.67;;;;;;;;;;4990507;28;20514;-63
2022/01/15 09:16:39;;;;;;;35.63;25.07;;;;;;;;;;5007609;28;20836;-63
2022/01/15 09:19:05;;;;;;;35.17;25.57;;;;;;;;;;5004578;28;20064;-64
2022/01/15 09:21:32;;;;;;;35.80;24.33;;;;;;;;;;4992345;28;20030;-63
2022/01/15 09:23:59;;;;;;;33.23;25.77;;;;;;;;;;4999437;28;20034;-63
2022/01/15 09:26:47;;;;;;;34.30;25.60;;;;;;;;;;5006203;28;20045;-64
2022/01/15 09:31:57;;;;;;;36.47;26.17;;;;;;;;;;5004665;28;20085;-64
2022/01/15 09:34:24;;;;;;;34.27;26.57;;;;;;;;;;5008229;28;20030;-64
2022/01/15 09:36:50;;;;;;;36.50;25.27;;;;;;;;;;5002425;28;20070;-64
2022/01/15 09:39:18;;;;;;;31.57;24.70;;;;;;;;;;5006313;28;20475;-64
2022/01/15 09:41:49;;;;;;;33.13;26.27;;;;;;;;;;4998046;28;20391;-64
2022/01/15 09:44:16;;;;;;;31.40;24.00;;;;;;;;;;5003881;28;20112;-64
2022/01/15 09:46:42;;;;;;;29.73;24.27;;;;;;;;;;5006441;28;20161;-63
2022/01/15 09:49:10;;;;;;;36.63;25.03;;;;;;;;;;4992077;28;20494;-63
2022/01/15 09:51:36;;;;;;;29.83;23.20;;;;;;;;;;4992943;28;20025;-63
2022/01/15 09:54:03;;;;;;;32.03;23.80;;;;;;;;;;5001425;28;20730;-63
2022/01/15 09:56:29;;;;;;;35.47;24.40;;;;;;;;;;5005041;28;20505;-63
2022/01/15 09:58:57;;;;;;;38.27;24.77;;;;;;;;;;5003333;28;20029;-63
2022/01/15 10:01:24;;;;;;;32.97;24.63;;;;;;;;;;5008389;28;20040;-63
2022/01/15 10:03:50;;;;;;;29.63;23.93;;;;;;;;;;5003864;28;20096;-64
2022/01/15 10:06:16;;;;;;;34.47;25.93;;;;;;;;;;5001347;28;20483;-63
2022/01/15 10:08:58;;;;;;;37.83;24.93;;;;;;;;;;5003993;28;20034;-68
2022/01/15 10:11:42;;;;;;;37.37;25.60;;;;;;;;;;5002256;28;20069;-68
2022/01/15 10:14:27;;;;;;;35.70;26.27;;;;;;;;;;5009069;28;20041;-67
2022/01/15 10:16:55;;;;;;;34.60;25.52;;;;;;;;;;4991810;28;20090;-68
2022/01/15 10:19:34;;;;;;;37.20;25.43;;;;;;;;;;5009531;28;20095;-67
2022/01/15 10:22:05;;;;;;;35.90;28.07;;;;;;;;;;4987170;28;20121;-67
2022/01/15 10:24:31;;;;;;;32.37;25.23;;;;;;;;;;5008702;28;20045;-68
2022/01/15 10:26:57;;;;;;;34.17;25.23;;;;;;;;;;5008575;28;20221;-67
2022/01/15 10:29:23;;;;;;;37.00;26.80;;;;;;;;;;4999987;28;20034;-67
2022/01/15 10:31:49;;;;;;;35.70;25.00;;;;;;;;;;5000572;28;20076;-68
2022/01/15 10:34:26;;;;;;;33.17;26.17;;;;;;;;;;5007160;28;20080;-68
2022/01/15 10:46:03;;;;;;;36.60;25.03;;;;;;;;;;5006897;28;20407;-63
2022/01/15 10:48:33;;;;;;;38.67;25.43;;;;;;;;;;5003433;28;20109;-63
2022/01/15 10:51:00;;;;;;;31.93;24.47;;;;;;;;;;4992917;28;20025;-63
2022/01/15 10:53:47;;;;;;;33.87;22.77;;;;;;;;;;5010215;28;20116;-64
2022/01/15 10:56:18;;;;;;;35.03;25.23;;;;;;;;;;5003880;28;20051;-64
2022/01/15 10:58:44;;;;;;;30.30;24.17;;;;;;;;;;5003083;28;20021;-64
2022/01/15 11:01:13;;;;;;;34.00;23.73;;;;;;;;;;5007025;28;20104;-64
2022/01/15 11:03:42;;;;;;;29.23;22.90;;;;;;;;;;4984679;28;20502;-64
2022/01/15 11:06:09;;;;;;;29.53;22.67;;;;;;;;;;5000125;28;20030;-63
2022/01/15 11:08:36;;;;;;;33.07;21.83;;;;;;;;;;5000237;28;20026;-64
2022/01/15 11:11:05;;;;;;;29.83;21.67;;;;;;;;;;4998257;28;20042;-64
2022/01/15 11:13:32;;;;;;;29.97;21.33;;;;;;;;;;5002666;28;20084;-63
2022/01/15 11:16:04;;;;;;;31.33;22.17;;;;;;;;;;5008095;28;20161;-64
2022/01/15 11:18:35;;;;;;;32.63;23.20;;;;;;;;;;4982690;28;20550;-64
2022/01/15 11:21:02;;;;;;;30.63;22.97;;;;;;;;;;5005633;28;20057;-64
2022/01/15 11:23:29;;;;;;;30.37;23.83;;;;;;;;;;5003055;28;20030;-64
2022/01/15 11:25:57;;;;;;;32.67;24.93;;;;;;;;;;5001243;28;20124;-64
2022/01/15 11:28:24;;;;;;;31.73;25.30;;;;;;;;;;4999650;28;20108;-64
2022/01/15 11:30:53;;;;;;;31.43;25.13;;;;;;;;;;5002077;28;20164;-64
2022/01/15 11:33:20;;;;;;;32.23;25.03;;;;;;;;;;5008597;28;20058;-64
2022/01/15 11:35:47;;;;;;;33.43;23.80;;;;;;;;;;5000895;28;20101;-64
2022/01/15 11:38:31;;;;;;;31.23;23.53;;;;;;;;;;5003573;28;20045;-64
2022/01/15 11:40:57;;;;;;;30.65;23.42;;;;;;;;;;5004649;28;20025;-63
2022/01/15 11:43:26;;;;;;;26.53;23.23;;;;;;;;;;4995542;28;20022;-63
2022/01/15 11:45:53;;;;;;;32.33;23.00;;;;;;;;;;5000299;28;20099;-64
2022/01/15 11:48:20;;;;;;;32.17;23.47;;;;;;;;;;4995677;28;20158;-64
2022/01/15 11:51:06;;;;;;;32.40;22.43;;;;;;;;;;5019451;28;20124;-64
2022/01/15 11:53:48;;;;;;;36.63;23.00;;;;;;;;;;5008608;28;20446;-63
2022/01/15 11:56:37;;;;;;;31.53;25.43;;;;;;;;;;5008317;28;20048;-64
2022/01/15 11:59:22;;;;;;;32.17;22.70;;;;;;;;;;4995858;28;20391;-63
2022/01/15 12:01:48;;;;;;;29.13;21.73;;;;;;;;;;5008291;28;20092;-63
2022/01/15 12:04:27;;;;;;;31.10;22.93;;;;;;;;;;5010056;28;20017;-63
2022/01/15 12:07:02;;;;;;;36.53;24.00;;;;;;;;;;5009999;28;20483;-63
2022/01/15 12:09:31;;;;;;;30.60;22.33;;;;;;;;;;5005760;28;20026;-63
2022/01/15 12:11:57;;;;;;;32.07;23.10;;;;;;;;;;5003347;28;20061;-63
2022/01/15 12:20:32;;;;;;;37.40;25.20;;;;;;;;;;5004463;28;20056;-63
2022/01/15 12:22:59;;;;;;;35.47;26.43;;;;;;;;;;4997871;28;20549;-63
2022/01/15 12:25:34;;;;;;;37.73;25.23;;;;;;;;;;5016531;28;20071;-63
2022/01/15 12:28:08;;;;;;;34.55;25.25;;;;;;;;;;5000502;28;20035;-63
2022/01/15 12:30:35;;;;;;;33.90;24.08;;;;;;;;;;4997311;28;20038;-63
2022/01/15 12:33:03;;;;;;;33.07;23.90;;;;;;;;;;4999889;28;20030;-63
2022/01/15 12:35:30;;;;;;;33.47;24.83;;;;;;;;;;4996775;28;20033;-63
2022/01/15 12:38:08;;;;;;;31.73;23.67;;;;;;;;;;4996992;28;20480;-63
2022/01/15 12:40:39;;;;;;;33.80;24.07;;;;;;;;;;4997050;28;20379;-63
2022/01/15 12:43:06;;;;;;;32.33;23.20;;;;;;;;;;4996759;28;20503;-63
2022/01/15 12:45:33;;;;;;;33.70;23.80;;;;;;;;;;4996654;28;20476;-63
2022/01/15 12:47:59;;;;;;;29.73;22.40;;;;;;;;;;4997454;28;20026;-63
2022/01/15 12:50:26;;;;;;;32.90;22.40;;;;;;;;;;4996962;28;20088;-63
2022/01/15 12:52:59;;;;;;;32.73;24.33;;;;;;;;;;4996832;28;20025;-63
2022/01/15 12:55:29;;;;;;;31.47;23.67;;;;;;;;;;4996613;28;20026;-64
2022/01/15 12:57:55;;;;;;;34.00;23.07;;;;;;;;;;4996743;28;20058;-63
2022/01/15 13:00:26;;;;;;;35.20;24.37;;;;;;;;;;4979656;28;20026;-64
2022/01/15 13:02:55;;;;;;;30.03;23.00;;;;;;;;;;4996473;28;20054;-64
2022/01/15 13:05:24;;;;;;;31.67;22.57;;;;;;;;;;5002305;28;20029;-64
2022/01/15 13:07:53;;;;;;;32.40;23.43;;;;;;;;;;5015176;28;20026;-64
2022/01/15 13:10:31;;;;;;;37.53;25.37;;;;;;;;;;4997362;28;20030;-64
2022/01/15 13:12:57;;;;;;;27.17;20.10;;;;;;;;;;4996335;28;20430;-64
2022/01/15 13:15:24;;;;;;;30.10;22.13;;;;;;;;;;4995856;28;20038;-64
2022/01/15 13:17:50;;;;;;;29.47;20.90;;;;;;;;;;4996083;28;20031;-64
2022/01/15 13:20:30;;;;;;;28.50;20.37;;;;;;;;;;5000921;28;20037;-64
2022/01/15 13:22:57;;;;;;;26.67;20.03;;;;;;;;;;5014077;28;20101;-64
2022/01/15 13:25:24;;;;;;;28.50;20.10;;;;;;;;;;5010539;28;20034;-64
2022/01/15 13:27:50;;;;;;;28.00;21.13;;;;;;;;;;4995974;28;20037;-64
2022/01/15 13:30:16;;;;;;;28.70;20.67;;;;;;;;;;4978698;28;20030;-64
2022/01/15 13:32:55;;;;;;;29.60;21.43;;;;;;;;;;4995916;28;20030;-64
2022/01/15 13:35:23;;;;;;;29.23;20.70;;;;;;;;;;4996189;28;20411;-64
2022/01/15 13:37:56;;;;;;;28.13;20.77;;;;;;;;;;4995964;28;20021;-64
2022/01/15 13:40:40;;;;;;;29.87;21.23;;;;;;;;;;4996060;28;20034;-64
2022/01/15 13:43:08;;;;;;;34.83;22.60;;;;;;;;;;4996049;28;20080;-64
2022/01/15 13:45:38;;;;;;;24.90;19.97;;;;;;;;;;5011155;28;20045;-64
2022/01/15 13:48:08;;;;;;;28.93;21.40;;;;;;;;;;5014956;28;20383;-64
2022/01/15 13:53:30;;;;;;;29.25;21.10;;;;;;;;;;4995906;28;20042;-64
2022/01/15 13:56:09;;;;;;;28.57;22.00;;;;;;;;;;4995514;28;20042;-64
2022/01/15 13:58:35;;;;;;;26.70;20.83;;;;;;;;;;4995410;28;20023;-64
2022/01/15 14:01:16;;;;;;;26.87;19.73;;;;;;;;;;4995537;28;20041;-64
2022/01/15 14:03:42;;;;;;;24.07;18.63;;;;;;;;;;4978079;28;20038;-64
2022/01/15 14:06:08;;;;;;;24.07;18.20;;;;;;;;;;5002848;28;20033;-64
2022/01/15 14:08:34;;;;;;;24.73;19.67;;;;;;;;;;4997414;28;20030;-64
2022/01/15 14:11:00;;;;;;;23.73;18.53;;;;;;;;;;5006631;28;20030;-63
2022/01/15 14:13:30;;;;;;;29.80;19.30;;;;;;;;;;5007373;28;20041;-63
2022/01/15 14:15:56;;;;;;;26.97;19.00;;;;;;;;;;5007543;28;20141;-63
2022/01/15 14:23:59;;;;;;;25.40;19.83;;;;;;;;;;4995135;28;20037;-63
2022/01/15 14:26:28;;;;;;;26.53;19.93;;;;;;;;;;5003296;28;20507;-63
2022/01/15 14:28:54;;;;;;;25.37;17.87;;;;;;;;;;4996713;28;20534;-64
2022/01/15 14:31:20;;;;;;;29.95;19.88;;;;;;;;;;5005931;28;20026;-63
2022/01/15 14:34:23;;;;;;;29.08;20.00;;;;;;;;;;4977203;28;20395;-63
2022/01/15 14:36:49;;;;;;;26.60;19.47;;;;;;;;;;5002479;28;20133;-63
2022/01/15 14:39:17;;;;;;;33.35;22.85;;;;;;;;;;5013381;28;20116;-63
2022/01/15 14:41:43;;;;;;;29.17;21.73;;;;;;;;;;5009972;28;20030;-63
2022/01/15 14:44:09;;;;;;;29.07;20.80;;;;;;;;;;5005654;28;20430;-63
2022/01/15 14:46:35;;;;;;;30.52;21.17;;;;;;;;;;5010184;28;20037;-64
2022/01/15 14:49:02;;;;;;;27.67;20.30;;;;;;;;;;4977122;28;20088;-64
2022/01/15 14:51:28;;;;;;;29.98;20.65;;;;;;;;;;4994787;28;20026;-64
2022/01/15 14:53:54;;;;;;;29.53;20.77;;;;;;;;;;5001722;28;20034;-64
2022/01/15 14:56:20;;;;;;;26.25;19.00;;;;;;;;;;5013033;28;20099;-64
2022/01/15 14:58:46;;;;;;;27.52;21.40;;;;;;;;;;4994617;28;20031;-64
2022/01/15 15:01:12;;;;;;;28.40;19.67;;;;;;;;;;4976507;28;20093;-64
2022/01/15 15:03:41;;;;;;;29.50;20.40;;;;;;;;;;4994424;28;20037;-64
2022/01/15 15:06:10;;;;;;;23.90;18.70;;;;;;;;;;4993975;28;20022;-64
2022/01/15 15:08:36;;;;;;;33.22;22.08;;;;;;;;;;5007352;28;20037;-64
2022/01/15 15:11:03;;;;;;;28.17;19.77;;;;;;;;;;5013678;28;20026;-64
2022/01/15 15:13:30;;;;;;;28.02;21.80;;;;;;;;;;4996101;28;20030;-64
2022/01/15 15:15:56;;;;;;;26.75;20.67;;;;;;;;;;4993807;28;20066;-64
2022/01/15 15:18:22;;;;;;;26.97;21.43;;;;;;;;;;4994196;28;20030;-64
2022/01/15 15:23:52;;;;;;;31.13;20.42;;;;;;;;;;5006080;28;20506;-64
2022/01/15 15:26:19;;;;;;;29.13;20.95;;;;;;;;;;4992990;28;20177;-64
2022/01/15 15:28:45;;;;;;;33.67;21.67;;;;;;;;;;5009119;28;20029;-63
2022/01/15 15:37:18;;;;;;;30.20;21.50;;;;;;;;;;5009790;28;20456;-64